Time;durP1;ratioP1;P1;durP2;ratioP2;P2;SDS_P1;SDS_P2;PMS_P1;PMS_P2;Temp;Humidity;BMP_temperature;BMP_pressure;BME280_temperature;BME280_humidity;BME280_pressure;Samples;Min_cycle;Max_cycle;Signal;HPM_P1;HPM_P2
2023/05/05 00:00:04;;;;;;;7.87;2.60;;;10.20;99.90;;;;;;4807330;29;20592;-49
2023/05/05 00:02:32;;;;;;;6.20;2.17;;;10.20;99.90;;;;;;4806639;29;20727;-49
2023/05/05 00:05:01;;;;;;;7.20;2.80;;;10.20;99.90;;;;;;4807463;29;20245;-48
2023/05/05 00:07:30;;;;;;;6.00;2.10;;;10.20;99.90;;;;;;4807189;29;20762;-49
2023/05/05 00:09:59;;;;;;;7.23;2.37;;;10.20;99.90;;;;;;4807218;29;20249;-48
2023/05/05 00:12:27;;;;;;;7.20;2.57;;;10.10;99.90;;;;;;4807013;29;20227;-51
2023/05/05 00:14:55;;;;;;;6.50;2.70;;;10.10;99.90;;;;;;4816764;29;20591;-51
2023/05/05 00:17:23;;;;;;;4.67;2.37;;;10.10;99.90;;;;;;4821017;29;20249;-48
2023/05/05 00:19:52;;;;;;;7.80;2.57;;;10.10;99.90;;;;;;4816270;29;20645;-49
2023/05/05 00:22:20;;;;;;;5.60;2.10;;;10.10;99.90;;;;;;4814402;29;20230;-51
2023/05/05 00:24:48;;;;;;;7.77;2.50;;;10.10;99.90;;;;;;4806508;29;20320;-49
2023/05/05 00:27:17;;;;;;;6.63;3.23;;;10.00;99.90;;;;;;4807121;29;20334;-49
2023/05/05 00:29:45;;;;;;;8.37;2.67;;;10.00;99.90;;;;;;4806543;29;20656;-49
2023/05/05 00:32:13;;;;;;;6.47;2.60;;;10.00;99.90;;;;;;4807107;29;20754;-46
2023/05/05 00:34:42;;;;;;;9.50;3.00;;;10.00;99.90;;;;;;4806669;29;20778;-50
2023/05/05 00:37:10;;;;;;;5.37;2.30;;;10.00;99.90;;;;;;4805602;29;20249;-49
2023/05/05 00:39:38;;;;;;;6.43;2.50;;;9.90;99.90;;;;;;4806433;29;20652;-50
2023/05/05 00:42:06;;;;;;;8.70;2.83;;;9.90;99.90;;;;;;4806600;29;20226;-47
2023/05/05 00:44:40;;;;;;;6.47;2.40;;;9.90;99.90;;;;;;4813685;29;20231;-52
2023/05/05 00:47:09;;;;;;;7.43;3.23;;;9.90;99.90;;;;;;4790574;29;20760;-52
2023/05/05 00:49:38;;;;;;;7.43;2.30;;;9.90;99.90;;;;;;4813621;29;20313;-51
2023/05/05 00:52:06;;;;;;;6.00;2.63;;;9.80;99.90;;;;;;4806671;29;20644;-51
2023/05/05 00:54:35;;;;;;;7.97;2.60;;;9.80;99.90;;;;;;4805924;29;20242;-48
2023/05/05 00:57:03;;;;;;;4.97;2.43;;;9.80;99.90;;;;;;4788392;29;20326;-47
2023/05/05 00:59:33;;;;;;;5.60;2.50;;;9.80;99.90;;;;;;4788087;29;20231;-50
2023/05/05 01:02:03;;;;;;;5.30;2.33;;;9.80;99.90;;;;;;4788301;29;20247;-56
2023/05/05 01:04:31;;;;;;;7.37;2.40;;;9.80;99.90;;;;;;4787980;29;20643;-57
2023/05/05 01:07:08;;;;;;;4.60;2.40;;;9.80;99.90;;;;;;4788525;29;20233;-56
2023/05/05 01:09:44;;;;;;;6.63;2.53;;;9.80;99.90;;;;;;4799573;29;20233;-56
2023/05/05 01:12:21;;;;;;;5.07;2.30;;;9.70;99.90;;;;;;4824343;29;20272;-56
2023/05/05 01:15:00;;;;;;;6.50;2.47;;;9.70;99.90;;;;;;4813005;29;20595;-56
2023/05/05 01:17:37;;;;;;;7.63;2.60;;;9.70;99.90;;;;;;4819619;29;20752;-56
2023/05/05 01:20:15;;;;;;;5.33;2.30;;;9.70;99.90;;;;;;4812102;29;20237;-56
2023/05/05 01:22:47;;;;;;;7.03;2.60;;;9.70;99.90;;;;;;4811512;29;20707;-56
2023/05/05 01:25:34;;;;;;;5.60;2.43;;;9.60;99.90;;;;;;4805803;29;20225;-56
2023/05/05 01:28:24;;;;;;;6.97;2.67;;;9.60;99.90;;;;;;4804592;29;20241;-56
2023/05/05 01:31:19;;;;;;;5.07;2.50;;;9.60;99.90;;;;;;4805417;29;20733;-56
2023/05/05 01:33:53;;;;;;;7.27;2.90;;;9.60;99.90;;;;;;4804337;29;20289;-56
2023/05/05 01:36:26;;;;;;;8.37;2.67;;;9.50;99.90;;;;;;4804571;29;20582;-56
2023/05/05 01:39:00;;;;;;;7.03;2.93;;;9.50;99.90;;;;;;4806017;29;20337;-56
2023/05/05 01:41:32;;;;;;;5.73;2.20;;;9.50;99.90;;;;;;4805821;29;20587;-54
2023/05/05 01:44:04;;;;;;;5.87;2.77;;;9.50;99.90;;;;;;4813184;29;20236;-57
2023/05/05 01:46:33;;;;;;;4.80;2.57;;;9.40;99.90;;;;;;4819794;29;20236;-57
2023/05/05 01:49:04;;;;;;;7.97;2.50;;;9.40;99.90;;;;;;4814999;29;20230;-56
2023/05/05 01:51:34;;;;;;;5.33;2.33;;;9.40;99.90;;;;;;4818637;29;20246;-56
2023/05/05 01:54:06;;;;;;;9.97;2.70;;;9.40;99.90;;;;;;4805425;29;20651;-56
2023/05/05 01:56:37;;;;;;;4.30;2.33;;;9.40;99.90;;;;;;4816373;29;20240;-56
2023/05/05 01:59:06;;;;;;;7.40;2.70;;;9.30;99.90;;;;;;4786273;29;20337;-56
2023/05/05 02:01:39;;;;;;;5.53;2.57;;;9.30;99.90;;;;;;4786936;29;20286;-56
2023/05/05 02:04:09;;;;;;;10.07;2.40;;;9.40;99.90;;;;;;4787590;29;20282;-56
2023/05/05 02:06:39;;;;;;;7.17;2.53;;;9.30;99.90;;;;;;4787267;29;20225;-56
2023/05/05 02:09:11;;;;;;;5.80;2.90;;;9.30;99.90;;;;;;4787474;29;20249;-56
2023/05/05 02:11:40;;;;;;;4.20;2.33;;;9.30;99.90;;;;;;4787338;29;20225;-56
2023/05/05 02:14:09;;;;;;;6.13;2.50;;;9.30;99.90;;;;;;4808366;29;20732;-54
2023/05/05 02:16:40;;;;;;;5.03;2.57;;;9.20;99.90;;;;;;4820363;29;20271;-56
2023/05/05 02:19:11;;;;;;;7.43;2.67;;;9.20;99.90;;;;;;4813012;29;20332;-56
2023/05/05 02:21:39;;;;;;;6.40;2.93;;;9.20;99.90;;;;;;4814896;29;20226;-56
2023/05/05 02:24:08;;;;;;;6.17;2.60;;;9.20;99.90;;;;;;4805231;29;20225;-56
2023/05/05 02:26:39;;;;;;;6.67;2.63;;;9.20;99.90;;;;;;4805051;29;20239;-56
2023/05/05 02:29:10;;;;;;;5.13;2.50;;;9.20;99.90;;;;;;4804062;29;20236;-56
2023/05/05 02:31:44;;;;;;;6.23;2.90;;;9.10;99.90;;;;;;4804900;29;20255;-56
2023/05/05 02:34:18;;;;;;;5.67;2.30;;;9.10;99.90;;;;;;4808569;29;20718;-56
2023/05/05 02:36:50;;;;;;;6.40;2.70;;;9.10;99.90;;;;;;4808524;29;20721;-56
2023/05/05 02:39:25;;;;;;;5.97;2.53;;;9.10;99.90;;;;;;4807596;29;20963;-56
2023/05/05 02:41:55;;;;;;;8.37;2.50;;;9.10;99.90;;;;;;4807605;29;20721;-56
2023/05/05 02:44:27;;;;;;;7.97;3.00;;;9.10;99.90;;;;;;4814669;29;20225;-56
2023/05/05 02:46:56;;;;;;;6.77;2.87;;;9.10;99.90;;;;;;4823761;29;20297;-56
2023/05/05 02:49:26;;;;;;;6.00;2.60;;;9.00;99.90;;;;;;4826840;29;20229;-56
2023/05/05 02:51:59;;;;;;;3.97;2.23;;;9.00;99.90;;;;;;4822827;29;20227;-56
2023/05/05 02:54:33;;;;;;;4.67;2.27;;;9.00;99.90;;;;;;4807015;29;20237;-56
2023/05/05 02:57:05;;;;;;;5.03;2.73;;;9.00;99.90;;;;;;4789129;29;20245;-56
2023/05/05 02:59:46;;;;;;;7.23;2.43;;;9.00;99.90;;;;;;4788925;29;20238;-56
2023/05/05 03:02:21;;;;;;;9.63;2.97;;;9.00;99.90;;;;;;4788746;29;20719;-56
2023/05/05 03:04:56;;;;;;;5.37;2.60;;;8.90;99.90;;;;;;4798977;29;20261;-56
2023/05/05 03:07:32;;;;;;;6.83;2.60;;;9.00;99.90;;;;;;4806819;29;20240;-56
2023/05/05 03:10:07;;;;;;;10.00;2.73;;;9.00;99.90;;;;;;4806971;29;20697;-55
2023/05/05 03:12:45;;;;;;;4.70;2.60;;;9.00;99.90;;;;;;4806856;29;20366;-56
2023/05/05 03:15:31;;;;;;;4.87;2.60;;;8.90;99.90;;;;;;4817242;29;20725;-56
2023/05/05 03:18:01;;;;;;;6.43;2.87;;;9.00;99.90;;;;;;4818993;29;20233;-56
2023/05/05 03:20:32;;;;;;;7.97;2.73;;;9.00;99.90;;;;;;4817855;29;20294;-56
2023/05/05 03:23:06;;;;;;;5.27;2.50;;;9.00;99.90;;;;;;4813108;29;20281;-56
2023/05/05 03:25:45;;;;;;;6.53;2.80;;;9.00;99.90;;;;;;4806519;29;20240;-55
2023/05/05 03:28:26;;;;;;;8.13;2.67;;;9.00;99.90;;;;;;4806444;29;20243;-55
2023/05/05 03:30:57;;;;;;;9.07;2.70;;;9.00;99.90;;;;;;4806217;29;20247;-56
2023/05/05 03:33:26;;;;;;;6.73;3.00;;;9.00;99.90;;;;;;4806478;29;20312;-55
2023/05/05 03:35:59;;;;;;;5.00;2.50;;;9.00;99.90;;;;;;4806477;29;20676;-56
2023/05/05 03:38:28;;;;;;;6.90;2.57;;;9.00;99.90;;;;;;4806283;29;20239;-56
2023/05/05 03:40:56;;;;;;;5.83;2.93;;;9.00;99.90;;;;;;4806427;29;20697;-56
2023/05/05 03:43:26;;;;;;;5.23;2.27;;;9.00;99.90;;;;;;4812340;29;20279;-56
2023/05/05 03:45:55;;;;;;;6.43;2.93;;;8.90;99.90;;;;;;4816342;29;20228;-56
2023/05/05 03:48:23;;;;;;;4.00;2.23;;;9.00;99.90;;;;;;4818494;29;20320;-56
2023/05/05 03:50:52;;;;;;;5.90;2.40;;;8.90;99.90;;;;;;4831953;29;20323;-57
2023/05/05 03:53:24;;;;;;;5.73;2.60;;;8.90;99.90;;;;;;4812306;29;20690;-56
2023/05/05 03:55:52;;;;;;;6.67;2.60;;;8.90;99.90;;;;;;4802688;29;20303;-56
2023/05/05 03:58:20;;;;;;;7.53;2.73;;;8.90;99.90;;;;;;4802252;29;20777;-56
2023/05/05 04:00:48;;;;;;;6.33;2.77;;;8.90;99.90;;;;;;4805574;29;20244;-56
2023/05/05 04:03:19;;;;;;;5.93;2.50;;;8.90;99.90;;;;;;4804970;29;20229;-56
2023/05/05 04:05:47;;;;;;;10.03;3.03;;;8.90;99.90;;;;;;4805683;29;20762;-56
2023/05/05 04:08:15;;;;;;;8.40;3.00;;;8.90;99.90;;;;;;4807244;29;20635;-57
2023/05/05 04:10:45;;;;;;;6.93;2.70;;;8.90;99.90;;;;;;4806987;29;20343;-56
2023/05/05 04:13:13;;;;;;;8.33;2.40;;;8.80;99.90;;;;;;4810280;29;20596;-54
2023/05/05 04:15:45;;;;;;;8.97;3.17;;;8.90;99.90;;;;;;4816062;29;20233;-56
2023/05/05 04:18:14;;;;;;;6.50;2.90;;;8.90;99.90;;;;;;4818527;29;20235;-56
2023/05/05 04:20:43;;;;;;;6.67;3.10;;;8.90;99.90;;;;;;4817569;29;20227;-56
2023/05/05 04:23:12;;;;;;;7.10;2.87;;;8.90;99.90;;;;;;4808415;29;20269;-56
2023/05/05 04:25:41;;;;;;;6.70;2.50;;;8.90;99.90;;;;;;4805456;29;20319;-57
2023/05/05 04:28:12;;;;;;;6.50;3.03;;;8.90;99.90;;;;;;4804464;29;20234;-56
2023/05/05 04:30:40;;;;;;;6.50;3.17;;;8.90;99.90;;;;;;4797121;29;20267;-51
2023/05/05 04:33:09;;;;;;;7.40;2.60;;;8.90;99.90;;;;;;4807583;29;20282;-55
2023/05/05 04:35:37;;;;;;;7.70;3.50;;;8.90;99.90;;;;;;4791225;29;20253;-50
2023/05/05 04:38:06;;;;;;;5.20;2.50;;;9.00;99.90;;;;;;4795505;29;20226;-51
2023/05/05 04:40:38;;;;;;;7.60;3.00;;;9.00;99.90;;;;;;4790611;29;20734;-48
2023/05/05 04:43:07;;;;;;;5.83;2.70;;;9.10;99.90;;;;;;4792506;29;21243;-50
2023/05/05 04:45:37;;;;;;;6.27;2.80;;;9.20;99.90;;;;;;4807885;29;20319;-49
2023/05/05 04:48:06;;;;;;;5.90;2.60;;;9.20;99.90;;;;;;4792300;29;20248;-51
2023/05/05 04:50:34;;;;;;;7.07;2.83;;;9.30;99.90;;;;;;4790884;29;20330;-49
2023/05/05 04:53:02;;;;;;;9.40;3.40;;;9.40;99.90;;;;;;4796717;29;20235;-50
2023/05/05 04:55:30;;;;;;;6.60;3.07;;;9.40;99.90;;;;;;4795274;29;20244;-50
2023/05/05 04:57:58;;;;;;;6.20;2.70;;;9.60;99.90;;;;;;4796216;29;20236;-49
2023/05/05 05:00:26;;;;;;;9.57;3.30;;;9.60;99.90;;;;;;4808517;29;20320;-48
2023/05/05 05:02:56;;;;;;;7.87;2.90;;;9.70;99.90;;;;;;4796274;29;20237;-48
2023/05/05 05:05:24;;;;;;;7.60;2.80;;;9.80;99.90;;;;;;4797146;29;20242;-50
2023/05/05 05:07:52;;;;;;;6.77;2.80;;;9.70;99.90;;;;;;4797136;29;20234;-50
2023/05/05 05:10:20;;;;;;;6.57;3.23;;;9.70;99.90;;;;;;4794051;29;20242;-49
2023/05/05 05:12:48;;;;;;;8.83;3.47;;;9.80;99.90;;;;;;4796464;29;20593;-49
2023/05/05 05:15:16;;;;;;;6.97;2.97;;;9.90;99.90;;;;;;4796652;29;20724;-50
2023/05/05 05:17:44;;;;;;;7.47;2.93;;;9.80;99.90;;;;;;4796146;29;20233;-51
2023/05/05 05:20:14;;;;;;;7.67;3.30;;;9.70;99.90;;;;;;4793401;29;20265;-50
2023/05/05 05:22:42;;;;;;;7.90;3.30;;;9.70;99.90;;;;;;4794927;29;20761;-49
2023/05/05 05:25:15;;;;;;;8.40;3.50;;;9.80;99.90;;;;;;4795083;29;21480;-49
2023/05/05 05:27:43;;;;;;;6.90;3.13;;;10.00;99.90;;;;;;4795246;29;20650;-47
2023/05/05 05:30:16;;;;;;;8.53;3.23;;;10.20;99.90;;;;;;4809939;29;20248;-48
2023/05/05 05:32:44;;;;;;;7.67;3.00;;;10.30;99.90;;;;;;4794704;29;20282;-51
2023/05/05 05:35:14;;;;;;;6.97;3.40;;;10.50;99.90;;;;;;4795234;29;20251;-47
2023/05/05 05:37:42;;;;;;;7.17;3.03;;;10.80;99.90;;;;;;4809804;29;20233;-50
2023/05/05 05:40:11;;;;;;;6.03;2.87;;;10.90;99.90;;;;;;4806300;29;20230;-48
2023/05/05 05:42:40;;;;;;;7.10;3.40;;;11.00;99.90;;;;;;4793538;29;20238;-47
2023/05/05 05:45:10;;;;;;;8.63;3.60;;;11.10;99.90;;;;;;4791907;29;20281;-51
2023/05/05 05:47:38;;;;;;;6.30;3.57;;;11.20;99.90;;;;;;4791379;29;20286;-49
2023/05/05 05:50:08;;;;;;;8.40;3.70;;;11.20;99.90;;;;;;4788918;29;20243;-51
2023/05/05 05:52:37;;;;;;;7.70;3.60;;;11.00;99.90;;;;;;4794944;29;21066;-47
2023/05/05 05:55:08;;;;;;;8.30;3.80;;;10.90;99.90;;;;;;4807277;29;20238;-49
2023/05/05 05:57:36;;;;;;;12.30;3.63;;;10.80;99.90;;;;;;4790513;29;20362;-49
2023/05/05 06:00:09;;;;;;;9.00;3.50;;;10.80;99.90;;;;;;4789597;29;20238;-51
2023/05/05 06:02:39;;;;;;;7.07;3.60;;;10.70;99.90;;;;;;4792411;29;20603;-51
2023/05/05 06:05:12;;;;;;;8.10;4.10;;;10.70;99.90;;;;;;4792035;29;20239;-51
2023/05/05 06:07:44;;;;;;;7.57;3.77;;;10.70;99.90;;;;;;4791545;29;20930;-48
2023/05/05 06:10:12;;;;;;;9.13;3.50;;;10.70;99.90;;;;;;4793721;29;20242;-49
2023/05/05 06:12:59;;;;;;;7.60;3.97;;;10.80;99.90;;;;;;4795224;29;20242;-49
2023/05/05 06:15:27;;;;;;;9.63;4.07;;;10.90;99.90;;;;;;4794970;29;20250;-49
2023/05/05 06:17:56;;;;;;;7.93;3.97;;;11.10;99.90;;;;;;4811144;29;20243;-49
2023/05/05 06:20:24;;;;;;;8.07;3.97;;;11.20;99.90;;;;;;4791814;29;20241;-46
2023/05/05 06:22:54;;;;;;;8.57;4.60;;;11.00;99.90;;;;;;4795792;29;20336;-50
2023/05/05 06:25:22;;;;;;;6.87;3.90;;;11.10;99.90;;;;;;4811339;29;20283;-50
2023/05/05 06:27:51;;;;;;;8.73;4.57;;;11.20;99.90;;;;;;4795194;29;20232;-51
2023/05/05 06:30:20;;;;;;;9.30;3.83;;;11.30;99.90;;;;;;4793686;29;20775;-50
2023/05/05 06:32:48;;;;;;;8.67;3.87;;;11.40;99.90;;;;;;4796576;29;21148;-48
2023/05/05 06:35:16;;;;;;;10.33;4.30;;;11.40;99.90;;;;;;4795175;29;20368;-51
2023/05/05 06:37:44;;;;;;;9.70;4.95;;;11.40;99.90;;;;;;4795588;29;20468;-47
2023/05/05 06:40:14;;;;;;;6.10;4.00;;;11.30;99.90;;;;;;4792017;29;20235;-50
2023/05/05 06:42:42;;;;;;;10.30;4.40;;;11.30;99.90;;;;;;4792953;29;20627;-48
2023/05/05 06:45:16;;;;;;;9.33;4.53;;;11.20;99.90;;;;;;4793781;29;20259;-50
2023/05/05 06:47:44;;;;;;;6.20;4.20;;;11.20;99.90;;;;;;4799276;29;20243;-50
2023/05/05 06:50:12;;;;;;;6.20;4.30;;;11.10;99.90;;;;;;4797729;29;20268;-51
2023/05/05 06:52:41;;;;;;;8.73;4.23;;;11.20;99.90;;;;;;4799699;29;20735;-51
2023/05/05 06:55:10;;;;;;;7.63;4.27;;;11.30;99.90;;;;;;4800061;29;20742;-51
2023/05/05 06:57:39;;;;;;;8.93;4.30;;;11.30;99.90;;;;;;4798370;29;20360;-49
2023/05/05 07:00:10;;;;;;;7.53;4.20;;;11.40;99.90;;;;;;4798274;29;20294;-50
2023/05/05 07:02:38;;;;;;;11.53;4.77;;;11.40;99.90;;;;;;4799172;29;20255;-50
2023/05/05 07:05:07;;;;;;;8.73;4.47;;;11.30;99.90;;;;;;4796614;29;20247;-51
2023/05/05 07:07:35;;;;;;;8.97;4.30;;;11.30;99.90;;;;;;4794283;29;20230;-51
2023/05/05 07:10:04;;;;;;;7.03;4.07;;;11.40;99.90;;;;;;4789899;29;20587;-51
2023/05/05 07:12:32;;;;;;;6.50;4.30;;;11.50;99.90;;;;;;4794826;29;20847;-48
2023/05/05 07:15:02;;;;;;;9.13;4.40;;;11.50;99.90;;;;;;4796746;29;20663;-49
2023/05/05 07:17:46;;;;;;;9.77;4.20;;;11.60;99.90;;;;;;4795424;29;20247;-51
2023/05/05 07:20:14;;;;;;;9.23;4.40;;;11.70;99.90;;;;;;4796157;29;20665;-50
2023/05/05 07:22:42;;;;;;;10.43;4.60;;;11.80;99.90;;;;;;4798808;29;20249;-52
2023/05/05 07:25:11;;;;;;;9.53;4.60;;;11.80;99.90;;;;;;4799285;29;20255;-50
2023/05/05 07:27:39;;;;;;;6.57;4.30;;;12.00;99.90;;;;;;4798920;29;21099;-51
2023/05/05 07:30:10;;;;;;;6.50;4.30;;;12.00;99.90;;;;;;4797838;29;20578;-49
2023/05/05 07:32:44;;;;;;;7.93;4.37;;;12.10;99.90;;;;;;4798389;29;20319;-50
2023/05/05 07:35:12;;;;;;;11.63;4.67;;;12.10;99.90;;;;;;4798652;29;20620;-51
2023/05/05 07:37:40;;;;;;;9.67;4.57;;;12.20;99.90;;;;;;4798964;29;20615;-48
2023/05/05 07:40:09;;;;;;;9.83;4.37;;;12.30;99.90;;;;;;4797956;29;20759;-50
2023/05/05 07:42:38;;;;;;;8.80;4.90;;;12.30;99.90;;;;;;4798485;29;20255;-49
2023/05/05 07:45:07;;;;;;;10.17;5.07;;;12.30;99.90;;;;;;4799288;29;20242;-50
2023/05/05 07:47:36;;;;;;;13.10;4.90;;;12.40;99.90;;;;;;4799387;29;20852;-51
2023/05/05 07:50:06;;;;;;;9.50;4.77;;;12.50;99.90;;;;;;4796861;29;20675;-52
2023/05/05 07:52:34;;;;;;;7.43;4.63;;;12.70;99.90;;;;;;4794220;29;20292;-49
2023/05/05 07:55:16;;;;;;;7.30;4.40;;;13.00;99.90;;;;;;4793510;29;20246;-50
2023/05/05 07:57:44;;;;;;;8.20;4.23;;;13.40;99.90;;;;;;4795638;29;20669;-50
2023/05/05 08:00:14;;;;;;;6.57;4.27;;;13.50;99.90;;;;;;4792077;29;20247;-51
2023/05/05 08:02:43;;;;;;;8.37;4.47;;;13.70;99.90;;;;;;4798266;29;20748;-47
2023/05/05 08:05:12;;;;;;;11.93;4.87;;;13.90;99.90;;;;;;4798112;29;20237;-51
2023/05/05 08:07:40;;;;;;;11.40;4.60;;;14.20;99.90;;;;;;4796679;29;20229;-51
2023/05/05 08:10:10;;;;;;;10.27;4.43;;;14.50;99.90;;;;;;4791861;29;20240;-49
2023/05/05 08:12:38;;;;;;;8.27;4.60;;;14.40;99.90;;;;;;4793601;29;20583;-50
2023/05/05 08:15:07;;;;;;;9.70;4.80;;;14.00;99.90;;;;;;4793710;29;20231;-50
2023/05/05 08:17:49;;;;;;;9.33;4.50;;;14.00;99.90;;;;;;4793821;29;20236;-50
2023/05/05 08:20:18;;;;;;;7.30;4.07;;;14.10;99.90;;;;;;4796436;29;20907;-49
2023/05/05 08:22:47;;;;;;;9.03;4.60;;;13.90;99.90;;;;;;4797831;29;20282;-50
2023/05/05 08:25:15;;;;;;;13.47;4.83;;;13.90;99.90;;;;;;4798184;29;20251;-51
2023/05/05 08:27:43;;;;;;;8.87;4.73;;;14.00;99.90;;;;;;4798126;29;20233;-48
2023/05/05 08:30:12;;;;;;;8.90;4.63;;;14.00;99.90;;;;;;4795771;29;20232;-50
2023/05/05 08:32:40;;;;;;;11.40;4.43;;;14.20;99.90;;;;;;4797318;29;20780;-50
2023/05/05 08:35:10;;;;;;;9.97;5.03;;;14.30;99.90;;;;;;4794241;29;20323;-49
2023/05/05 08:37:39;;;;;;;6.80;4.53;;;14.40;99.90;;;;;;4792791;29;20931;-49
2023/05/05 08:40:11;;;;;;;10.13;5.00;;;14.70;99.90;;;;;;4790423;29;20250;-51
2023/05/05 08:42:39;;;;;;;8.20;4.37;;;14.90;99.90;;;;;;4792431;29;20672;-51
2023/05/05 08:45:09;;;;;;;6.70;4.50;;;15.00;99.90;;;;;;4797614;29;20721;-49
2023/05/05 08:47:38;;;;;;;9.87;4.97;;;15.20;99.90;;;;;;4796471;29;20355;-51
2023/05/05 08:50:11;;;;;;;9.47;4.47;;;15.20;99.90;;;;;;4795443;29;20247;-50
2023/05/05 08:52:42;;;;;;;9.70;4.83;;;15.00;99.90;;;;;;4796785;29;20247;-50
2023/05/05 08:55:17;;;;;;;9.57;4.40;;;14.90;99.90;;;;;;4796996;29;20233;-49
2023/05/05 08:57:51;;;;;;;6.60;4.63;;;14.90;99.90;;;;;;4796888;29;20259;-52
2023/05/05 09:00:20;;;;;;;8.27;4.83;;;15.10;99.90;;;;;;4795169;29;20310;-50
2023/05/05 09:02:49;;;;;;;9.37;5.10;;;15.20;99.90;;;;;;4797272;29;20248;-51
2023/05/05 09:05:19;;;;;;;8.07;4.80;;;15.10;99.90;;;;;;4794786;29;20236;-48
2023/05/05 09:07:47;;;;;;;7.67;5.27;;;14.80;99.90;;;;;;4793314;29;20946;-51
2023/05/05 09:10:16;;;;;;;7.73;4.93;;;14.70;99.90;;;;;;4788357;29;20244;-51
2023/05/05 09:12:44;;;;;;;8.00;4.80;;;14.70;99.90;;;;;;4792320;29;20240;-50
2023/05/05 09:15:14;;;;;;;10.07;4.87;;;14.60;99.90;;;;;;4792097;29;20229;-49
2023/05/05 09:17:42;;;;;;;8.17;4.90;;;14.60;99.90;;;;;;4796169;29;20236;-49
2023/05/05 09:20:12;;;;;;;8.83;5.27;;;14.60;99.90;;;;;;4795641;29;20233;-50
2023/05/05 09:22:43;;;;;;;16.53;5.90;;;14.40;99.90;;;;;;4796724;29;20237;-50
2023/05/05 09:25:12;;;;;;;7.67;4.90;;;14.30;99.90;;;;;;4796905;29;20723;-51
2023/05/05 09:27:44;;;;;;;11.23;5.43;;;14.00;99.90;;;;;;4796141;29;20241;-47
2023/05/05 09:30:15;;;;;;;9.37;4.73;;;13.90;99.90;;;;;;4794528;29;20271;-47
2023/05/05 09:32:44;;;;;;;7.53;4.73;;;13.80;99.90;;;;;;4792745;29;20258;-51
2023/05/05 09:35:13;;;;;;;11.53;5.60;;;13.80;99.90;;;;;;4792023;29;20228;-47
2023/05/05 09:37:42;;;;;;;11.20;4.93;;;13.80;99.90;;;;;;4791122;29;20705;-51
2023/05/05 09:40:12;;;;;;;10.33;5.30;;;13.80;99.90;;;;;;4788808;29;20245;-49
2023/05/05 09:42:41;;;;;;;12.70;5.13;;;13.80;99.90;;;;;;4794335;29;20244;-48
2023/05/05 09:45:26;;;;;;;8.70;5.13;;;13.90;99.90;;;;;;4797315;29;20343;-51
2023/05/05 09:47:54;;;;;;;11.53;5.40;;;13.90;99.90;;;;;;4797264;29;21375;-51
2023/05/05 09:50:29;;;;;;;10.63;4.47;;;14.10;99.90;;;;;;4794469;29;20256;-49
2023/05/05 09:53:00;;;;;;;8.20;4.57;;;14.10;99.90;;;;;;4796513;29;20882;-51
2023/05/05 09:55:30;;;;;;;8.27;4.87;;;14.10;99.90;;;;;;4796502;29;20331;-49
2023/05/05 09:58:18;;;;;;;11.23;4.83;;;14.20;99.90;;;;;;4791953;29;20301;-51
2023/05/05 10:00:46;;;;;;;8.43;4.83;;;14.20;99.90;;;;;;4791281;29;20508;-49
2023/05/05 10:03:14;;;;;;;8.20;4.87;;;14.20;99.90;;;;;;4793391;29;20237;-51
2023/05/05 10:05:50;;;;;;;9.83;5.10;;;14.10;99.90;;;;;;4792379;29;20601;-50
2023/05/05 10:08:22;;;;;;;9.40;4.47;;;14.20;99.90;;;;;;4793172;29;20673;-50
2023/05/05 10:10:51;;;;;;;8.40;5.00;;;14.10;99.90;;;;;;4795715;29;20735;-49
2023/05/05 10:13:21;;;;;;;8.53;5.00;;;14.10;99.90;;;;;;4796272;29;20244;-49
2023/05/05 10:15:51;;;;;;;7.20;4.63;;;14.20;99.90;;;;;;4796027;29;20244;-49
2023/05/05 10:18:21;;;;;;;6.23;4.23;;;14.40;99.90;;;;;;4794790;29;20236;-49
2023/05/05 10:20:58;;;;;;;7.83;4.80;;;14.60;99.90;;;;;;4795571;29;20240;-50
2023/05/05 10:23:35;;;;;;;11.57;5.37;;;14.60;99.90;;;;;;4796636;29;20236;-51
2023/05/05 10:26:07;;;;;;;7.90;4.87;;;14.60;99.90;;;;;;4796894;29;20236;-48
2023/05/05 10:28:41;;;;;;;9.03;5.10;;;14.50;99.90;;;;;;4795209;29;20307;-49
2023/05/05 10:31:16;;;;;;;7.33;4.97;;;14.60;99.90;;;;;;4795259;29;20254;-49
2023/05/05 10:33:57;;;;;;;5.90;4.57;;;14.60;99.90;;;;;;4796365;29;20375;-47
2023/05/05 10:36:26;;;;;;;7.57;4.77;;;14.50;99.90;;;;;;4796493;29;20740;-49
2023/05/05 10:38:57;;;;;;;10.77;5.10;;;14.40;99.90;;;;;;4795386;29;20382;-50
2023/05/05 10:41:25;;;;;;;8.37;5.10;;;14.50;99.90;;;;;;4796179;29;20247;-49
2023/05/05 10:43:56;;;;;;;9.87;4.93;;;14.50;99.90;;;;;;4796062;29;20251;-51
2023/05/05 10:46:26;;;;;;;11.80;5.03;;;14.60;99.90;;;;;;4796774;29;20809;-49
2023/05/05 10:48:59;;;;;;;9.90;5.10;;;14.50;99.90;;;;;;4795379;29;20382;-50
2023/05/05 10:51:36;;;;;;;6.03;4.73;;;14.50;99.90;;;;;;4795959;29;20781;-48
2023/05/05 10:54:16;;;;;;;8.40;4.90;;;14.60;99.90;;;;;;4796506;29;20233;-49
2023/05/05 10:56:45;;;;;;;9.33;4.77;;;14.70;99.90;;;;;;4799050;29;20331;-50
2023/05/05 10:59:39;;;;;;;8.47;5.33;;;14.90;99.90;;;;;;4798323;29;20612;-49
2023/05/05 11:02:25;;;;;;;11.40;4.77;;;14.80;99.90;;;;;;4796780;29;20243;-48
2023/05/05 11:05:16;;;;;;;9.07;4.83;;;14.80;99.90;;;;;;4796668;29;20250;-48
2023/05/05 11:07:48;;;;;;;8.50;4.43;;;14.80;99.90;;;;;;4794745;29;20713;-49
2023/05/05 11:10:19;;;;;;;8.80;4.73;;;14.80;99.90;;;;;;4793683;29;20952;-49
2023/05/05 11:13:22;;;;;;;9.87;4.60;;;14.80;99.90;;;;;;4795801;29;20297;-48
2023/05/05 11:15:52;;;;;;;8.50;4.33;;;14.80;99.90;;;;;;4794590;29;20655;-46
2023/05/05 11:18:43;;;;;;;8.60;4.90;;;14.80;99.90;;;;;;4797949;29;20232;-46
2023/05/05 11:21:16;;;;;;;8.00;4.50;;;14.70;99.90;;;;;;4796861;29;20293;-49
2023/05/05 11:23:46;;;;;;;9.10;4.70;;;14.60;99.90;;;;;;4799770;29;20232;-50
2023/05/05 11:26:17;;;;;;;7.57;4.63;;;14.60;99.90;;;;;;4799584;29;20236;-49
2023/05/05 11:28:57;;;;;;;9.10;4.50;;;14.60;99.90;;;;;;4797996;29;20575;-50
2023/05/05 11:31:26;;;;;;;8.03;4.40;;;14.60;99.90;;;;;;4798565;29;20255;-50
2023/05/05 11:33:54;;;;;;;9.67;4.63;;;15.00;99.90;;;;;;4799135;29;20258;-50
2023/05/05 11:36:41;;;;;;;7.23;4.43;;;15.30;99.90;;;;;;4795208;29;20741;-51
2023/05/05 11:39:18;;;;;;;8.30;4.67;;;15.70;99.90;;;;;;4792406;29;20241;-50
2023/05/05 11:42:07;;;;;;;7.00;4.20;;;15.80;99.90;;;;;;4792751;29;20250;-51
2023/05/05 11:44:38;;;;;;;8.20;3.93;;;15.80;99.90;;;;;;4794800;29;20777;-50
2023/05/05 11:47:25;;;;;;;8.53;4.00;;;15.90;99.90;;;;;;4798914;29;20240;-52
2023/05/05 11:49:54;;;;;;;6.83;4.10;;;15.90;99.90;;;;;;4795483;29;20638;-50
2023/05/05 11:52:25;;;;;;;5.20;3.83;;;16.10;99.90;;;;;;4808991;29;20243;-51
2023/05/05 11:54:53;;;;;;;7.57;4.17;;;16.40;99.90;;;;;;4792505;29;20241;-51
2023/05/05 11:57:29;;;;;;;8.17;4.10;;;16.70;99.90;;;;;;4792566;29;20258;-51
2023/05/05 11:59:59;;;;;;;7.93;3.87;;;16.90;99.90;;;;;;4792914;29;20251;-49
2023/05/05 12:02:29;;;;;;;8.20;4.30;;;16.70;99.90;;;;;;4797663;29;20794;-49
2023/05/05 12:04:58;;;;;;;6.67;4.27;;;16.60;99.90;;;;;;4798441;29;20240;-49
2023/05/05 12:07:28;;;;;;;6.67;4.13;;;16.50;99.90;;;;;;4797960;29;20701;-49
2023/05/05 12:09:56;;;;;;;7.53;4.20;;;16.60;99.90;;;;;;4796952;29;20245;-50
2023/05/05 12:12:37;;;;;;;9.13;4.40;;;16.80;99.90;;;;;;4795401;29;20242;-48
2023/05/05 12:15:08;;;;;;;7.03;4.07;;;16.70;99.90;;;;;;4792258;29;20585;-51
2023/05/05 12:17:41;;;;;;;8.43;4.40;;;16.80;99.90;;;;;;4794391;29;20261;-51
2023/05/05 12:20:10;;;;;;;9.93;4.40;;;16.80;99.90;;;;;;4791920;29;20643;-51
2023/05/05 12:22:39;;;;;;;9.00;4.37;;;16.70;99.90;;;;;;4795963;29;20701;-49
2023/05/05 12:25:08;;;;;;;9.73;4.07;;;16.70;99.90;;;;;;4798855;29;20248;-51
2023/05/05 12:27:38;;;;;;;7.43;4.53;;;16.60;99.90;;;;;;4797398;29;20240;-51
2023/05/05 12:30:15;;;;;;;10.30;4.20;;;16.50;99.90;;;;;;4796396;29;20237;-49
2023/05/05 12:32:44;;;;;;;7.97;4.23;;;16.50;99.90;;;;;;4797845;29;20624;-52
2023/05/05 12:35:14;;;;;;;7.97;4.13;;;16.50;99.90;;;;;;4798333;29;20244;-52
2023/05/05 12:37:43;;;;;;;10.60;4.23;;;16.70;99.90;;;;;;4797642;29;20960;-50
2023/05/05 12:40:42;;;;;;;7.53;3.90;;;16.70;99.90;;;;;;4796936;29;20721;-47
2023/05/05 12:43:27;;;;;;;11.77;4.30;;;16.90;99.90;;;;;;4794402;29;20251;-49
2023/05/05 12:46:03;;;;;;;6.57;4.10;;;17.10;99.90;;;;;;4795017;29;20593;-47
2023/05/05 12:48:32;;;;;;;8.30;4.43;;;17.00;99.90;;;;;;4792021;29;20786;-48
2023/05/05 12:51:19;;;;;;;7.47;4.60;;;17.10;99.90;;;;;;4793523;29;20370;-48
2023/05/05 12:53:48;;;;;;;7.20;4.33;;;17.10;99.90;;;;;;4796465;29;20228;-46
2023/05/05 12:56:33;;;;;;;8.70;4.17;;;17.00;99.90;;;;;;4798002;29;20765;-45
2023/05/05 12:59:03;;;;;;;6.80;4.60;;;17.10;99.90;;;;;;4794064;29;20331;-46
2023/05/05 13:01:32;;;;;;;7.03;4.33;;;17.30;99.90;;;;;;4792629;29;20274;-45
2023/05/05 13:04:09;;;;;;;6.77;3.73;;;17.40;99.90;;;;;;4793068;29;20927;-46
2023/05/05 13:06:37;;;;;;;5.70;4.20;;;17.20;99.90;;;;;;4793544;29;21331;-45
2023/05/05 13:09:06;;;;;;;7.53;4.57;;;17.20;99.90;;;;;;4791132;29;20238;-47
2023/05/05 13:11:36;;;;;;;5.83;3.80;;;17.10;99.90;;;;;;4792794;29;20230;-47